createdAt,value
2023-09-06T00:28:47.097Z,10.60
2023-09-06T00:48:22.866Z,10.40
2023-09-06T00:50:51.732Z,10.60
2023-09-06T00:53:18.008Z,10.80
2023-09-06T00:58:16.441Z,10.40
2023-09-06T01:00:44.184Z,10.40
2023-09-06T01:05:42.254Z,10.60
2023-09-06T01:08:10.657Z,10.50
2023-09-06T01:17:56.581Z,10.40
2023-09-06T01:20:53.579Z,10.50
2023-09-06T01:23:40.738Z,10.50
2023-09-06T01:33:31.169Z,10.50
2023-09-06T01:35:57.688Z,10.10
2023-09-06T01:38:24.286Z,10.40
2023-09-06T01:43:17.714Z,10.40
2023-09-06T01:45:51.539Z,10.30
2023-09-06T01:48:21.155Z,10.40
2023-09-06T01:50:47.441Z,10.10
2023-09-06T01:55:43.566Z,10.20
2023-09-06T01:58:10.244Z,10.20
2023-09-06T02:03:10.042Z,10.10
2023-09-06T02:12:58.103Z,10.00
2023-09-06T02:22:47.326Z,10.00
2023-09-06T02:25:13.973Z,10.00
2023-09-06T02:27:40.946Z,10.10
2023-09-06T02:42:23.441Z,9.70
2023-09-06T02:44:49.502Z,9.90
2023-09-06T02:47:15.685Z,9.90
2023-09-06T02:49:46.162Z,9.90
2023-09-06T02:52:29.753Z,10.00
2023-09-06T02:54:58.390Z,9.80
2023-09-06T02:57:25.720Z,9.90
2023-09-06T03:02:19.970Z,9.80
2023-09-06T03:04:46.105Z,10.00
2023-09-06T03:07:13.106Z,9.60
2023-09-06T03:09:39.757Z,9.50
2023-09-06T03:14:45.219Z,10.10
2023-09-06T03:17:11.852Z,9.60
2023-09-06T03:19:45.930Z,9.80
2023-09-06T03:22:12.710Z,9.60
2023-09-06T03:24:40.937Z,9.50
2023-09-06T03:27:08.225Z,9.80
2023-09-06T03:29:36.962Z,9.60
2023-09-06T03:32:09.358Z,9.50
2023-09-06T03:34:36.390Z,9.60
2023-09-06T03:37:06.129Z,9.50
2023-09-06T03:39:32.734Z,9.50
2023-09-06T03:42:08.824Z,9.40
2023-09-06T03:44:36.016Z,9.50
2023-09-06T03:47:05.980Z,9.60
2023-09-06T03:49:36.319Z,9.40
2023-09-06T03:52:05.652Z,9.30
2023-09-06T03:54:35.155Z,9.30
2023-09-06T03:57:02.746Z,9.30
2023-09-06T03:59:30.821Z,9.10
2023-09-06T04:04:23.810Z,9.30
2023-09-06T04:06:50.109Z,9.40
2023-09-06T04:09:19.018Z,9.20
2023-09-06T04:16:40.101Z,9.50
2023-09-06T04:19:06.182Z,9.20
2023-09-06T04:26:25.935Z,9.50
2023-09-06T04:31:18.481Z,9.30
2023-09-06T04:33:47.602Z,9.20
2023-09-06T04:36:13.630Z,9.60
2023-09-06T04:38:39.691Z,9.50
2023-09-06T04:41:06.186Z,9.40
2023-09-06T04:46:00.257Z,9.70
2023-09-06T04:48:26.606Z,9.80
2023-09-06T04:50:53.043Z,9.90
2023-09-06T04:53:19.592Z,10.10
2023-09-06T04:55:47.639Z,10.20
2023-09-06T04:58:14.514Z,10.10
2023-09-06T05:00:43.940Z,10.20
2023-09-06T05:03:13.378Z,10.30
2023-09-06T05:05:40.944Z,10.60
2023-09-06T05:08:07.158Z,10.70
2023-09-06T05:10:35.912Z,10.90
2023-09-06T05:13:02.188Z,11.00
2023-09-06T05:17:54.896Z,11.40
2023-09-06T05:20:34.272Z,11.80
2023-09-06T05:23:08.229Z,11.50
2023-09-06T05:25:34.471Z,11.60
2023-09-06T05:28:02.348Z,11.70
2023-09-06T05:30:28.549Z,11.90
2023-09-06T05:32:55.960Z,12.00
2023-09-06T05:35:22.930Z,12.10
2023-09-06T05:37:49.519Z,12.30
2023-09-06T05:40:15.633Z,12.60
2023-09-06T05:42:41.755Z,12.40
2023-09-06T05:45:11.888Z,12.60
2023-09-06T05:47:38.889Z,12.60
2023-09-06T05:50:09.034Z,12.70
2023-09-06T05:52:35.177Z,12.80
2023-09-06T05:55:02.365Z,12.90
2023-09-06T05:57:28.440Z,13.00
2023-09-06T05:59:54.520Z,13.20
2023-09-06T06:02:20.664Z,15.80
2023-09-06T06:04:46.877Z,13.80
2023-09-06T06:07:16.672Z,14.10
2023-09-06T06:09:43.194Z,15.40
2023-09-06T06:12:10.641Z,16.20
2023-09-06T06:14:40.504Z,17.50
2023-09-06T06:17:06.931Z,16.80
2023-09-06T06:19:36.015Z,17.50
2023-09-06T06:22:03.061Z,17.30
2023-09-06T06:24:35.756Z,17.70
2023-09-06T06:27:01.773Z,18.60
2023-09-06T06:29:28.679Z,17.40
2023-09-06T06:31:55.699Z,17.10
2023-09-06T06:34:21.853Z,16.80
2023-09-06T06:36:47.948Z,16.70
2023-09-06T06:39:14.800Z,16.60
2023-09-06T06:41:41.846Z,16.50
2023-09-06T06:44:08.738Z,16.40
2023-09-06T06:46:36.941Z,16.50
2023-09-06T06:49:05.105Z,17.00
2023-09-06T06:51:35.590Z,16.80
2023-09-06T06:54:03.688Z,17.20
2023-09-06T06:56:29.740Z,17.60
2023-09-06T06:58:55.869Z,18.20
2023-09-06T07:01:24.704Z,18.90
2023-09-06T07:03:51.689Z,19.90
2023-09-06T07:06:18.346Z,20.90
2023-09-06T07:08:44.369Z,21.90
2023-09-06T07:11:14.542Z,22.80
2023-09-06T07:13:41.143Z,23.50
2023-09-06T07:16:07.295Z,23.80
2023-09-06T07:18:35.340Z,24.80
2023-09-06T07:21:01.817Z,23.30
2023-09-06T07:23:27.894Z,24.30
2023-09-06T07:28:23.281Z,24.80
2023-09-06T07:30:49.838Z,24.80
2023-09-06T07:33:16.359Z,26.10
2023-09-06T07:35:42.657Z,25.50
2023-09-06T07:38:09.131Z,25.50
2023-09-06T07:40:41.740Z,27.30
2023-09-06T07:43:12.804Z,27.10
2023-09-06T07:55:25.307Z,29.40
2023-09-06T07:57:51.397Z,28.80
2023-09-06T08:05:11.089Z,30.30
2023-09-06T08:10:09.514Z,30.60
2023-09-06T08:12:37.262Z,30.60
2023-09-06T08:15:04.445Z,30.80
2023-09-06T08:17:30.795Z,31.10
2023-09-06T08:19:56.951Z,31.20
2023-09-06T08:22:35.536Z,30.40
2023-09-06T08:30:03.561Z,30.60
2023-09-06T08:32:29.938Z,31.10
2023-09-06T08:34:56.111Z,31.20
2023-09-06T08:37:22.206Z,31.30
2023-09-06T08:42:20.656Z,31.10
2023-09-06T08:44:48.314Z,31.60
2023-09-06T08:49:42.593Z,31.60
2023-09-06T08:52:10.282Z,31.30
2023-09-06T08:54:36.435Z,31.30
2023-09-06T08:57:02.683Z,30.50
2023-09-06T09:04:25.190Z,31.20
2023-09-06T09:06:51.564Z,31.20
2023-09-06T09:09:18.100Z,31.50
2023-09-06T09:11:51.185Z,31.40
2023-09-06T09:14:24.505Z,31.40
2023-09-06T09:16:58.046Z,31.50
2023-09-06T09:19:24.233Z,31.90
2023-09-06T09:21:51.008Z,31.60
2023-09-06T09:24:30.249Z,31.10
2023-09-06T09:26:59.684Z,31.10
2023-09-06T09:29:26.487Z,31.40
2023-09-06T09:31:52.544Z,31.30
2023-09-06T09:34:18.649Z,31.30
2023-09-06T09:36:51.654Z,31.60
2023-09-06T09:41:58.509Z,31.50
2023-09-06T09:44:25.765Z,31.60
2023-09-06T09:46:53.003Z,31.30
2023-09-06T09:49:19.721Z,30.60
2023-09-06T09:51:45.797Z,30.60
2023-09-06T09:54:11.961Z,30.90
2023-09-06T09:56:38.292Z,30.80
2023-09-06T09:59:04.724Z,30.60
2023-09-06T10:01:31.972Z,30.20
2023-09-06T10:03:58.967Z,30.60
2023-09-06T10:06:27.066Z,30.80
2023-09-06T10:08:54.758Z,30.80
2023-09-06T10:11:20.765Z,30.80
2023-09-06T10:13:47.858Z,30.70
2023-09-06T10:16:14.569Z,30.70
2023-09-06T10:18:40.685Z,30.30
2023-09-06T10:21:07.098Z,30.10
2023-09-06T10:23:41.632Z,30.00
2023-09-06T10:26:07.673Z,30.00
2023-09-06T10:28:34.465Z,30.00
2023-09-06T10:31:18.868Z,30.00
2023-09-06T10:34:03.382Z,30.00
2023-09-06T10:36:30.371Z,29.80
2023-09-06T10:39:17.407Z,30.00
2023-09-06T10:42:15.872Z,30.00
2023-09-06T10:48:13.883Z,30.00
2023-09-06T10:50:40.210Z,30.10
2023-09-06T10:53:06.321Z,30.00
2023-09-06T10:55:53.597Z,30.00
2023-09-06T10:58:24.041Z,29.90
2023-09-06T11:01:19.056Z,30.00
2023-09-06T11:03:50.768Z,30.00
2023-09-06T11:06:19.293Z,30.10
2023-09-06T11:08:46.639Z,29.80
2023-09-06T11:11:14.578Z,29.80
2023-09-06T11:13:42.455Z,29.90
2023-09-06T11:16:15.341Z,29.40
2023-09-06T11:18:50.993Z,28.50
2023-09-06T11:21:20.852Z,28.90
2023-09-06T11:23:48.160Z,28.90
2023-09-06T11:26:14.302Z,28.10
2023-09-06T11:28:43.495Z,28.30
2023-09-06T11:31:27.533Z,28.40
2023-09-06T11:33:56.581Z,28.90
2023-09-06T11:36:27.311Z,28.00
2023-09-06T11:38:53.944Z,28.30
2023-09-06T11:41:21.282Z,28.60
2023-09-06T11:43:50.020Z,28.80
2023-09-06T11:46:17.924Z,29.00
2023-09-06T11:48:45.122Z,29.40
2023-09-06T11:51:13.807Z,29.50
2023-09-06T11:53:48.672Z,29.70
2023-09-06T11:56:20.307Z,29.30
2023-09-06T11:58:49.900Z,28.40
2023-09-06T12:01:22.349Z,28.90
2023-09-06T12:03:48.871Z,29.20
2023-09-06T12:06:15.917Z,29.40
2023-09-06T12:08:42.358Z,29.60
2023-09-06T12:11:20.722Z,29.80
2023-09-06T12:13:47.040Z,28.80
2023-09-06T12:16:13.066Z,29.80
2023-09-06T12:18:39.421Z,29.80
2023-09-06T12:21:06.123Z,29.90
2023-09-06T12:23:34.973Z,29.90
2023-09-06T12:26:02.701Z,29.70
2023-09-06T12:28:29.699Z,29.40
2023-09-06T12:30:59.347Z,29.70
2023-09-06T12:33:28.082Z,29.90
2023-09-06T12:36:01.464Z,29.80
2023-09-06T12:38:28.378Z,30.10
2023-09-06T12:40:55.630Z,29.50
2023-09-06T12:43:21.822Z,29.20
2023-09-06T12:45:48.396Z,29.30
2023-09-06T12:48:14.794Z,28.30
2023-09-06T12:50:40.923Z,28.80
2023-09-06T12:53:10.491Z,28.80
2023-09-06T12:55:37.479Z,28.50
2023-09-06T12:58:04.961Z,29.20
2023-09-06T13:00:30.964Z,29.30
2023-09-06T13:02:57.026Z,29.20
2023-09-06T13:05:24.156Z,29.30
2023-09-06T13:07:50.402Z,29.60
2023-09-06T13:10:16.455Z,30.10
2023-09-06T13:12:43.967Z,29.10
2023-09-06T13:15:10.346Z,29.40
2023-09-06T13:17:36.516Z,29.50
2023-09-06T13:20:05.057Z,29.30
2023-09-06T13:22:31.306Z,29.30
2023-09-06T13:24:57.317Z,29.50
2023-09-06T13:27:23.369Z,29.40
2023-09-06T13:29:49.910Z,29.60
2023-09-06T13:32:16.042Z,29.40
2023-09-06T13:34:42.197Z,29.40
2023-09-06T13:37:08.268Z,29.70
2023-09-06T13:39:34.399Z,29.90
2023-09-06T13:42:01.430Z,29.80
2023-09-06T13:44:31.770Z,29.80
2023-09-06T13:47:00.735Z,29.10
2023-09-06T13:49:27.198Z,29.10
2023-09-06T13:51:53.903Z,29.20
2023-09-06T13:54:20.060Z,29.00
2023-09-06T13:56:50.602Z,29.30
2023-09-06T13:59:17.482Z,29.40
2023-09-06T14:01:43.646Z,29.30
2023-09-06T14:04:09.884Z,28.70
2023-09-06T14:06:38.045Z,28.60
2023-09-06T14:09:04.929Z,29.20
2023-09-06T14:11:31.057Z,29.30
2023-09-06T14:13:57.677Z,29.10
2023-09-06T14:16:23.793Z,29.20
2023-09-06T14:18:49.988Z,29.20
2023-09-06T14:21:21.041Z,29.10
2023-09-06T14:23:47.479Z,29.10
2023-09-06T14:26:14.383Z,29.10
2023-09-06T14:28:41.252Z,28.90
2023-09-06T14:31:11.200Z,28.90
2023-09-06T14:33:38.901Z,28.70
2023-09-06T14:36:05.226Z,28.40
2023-09-06T14:38:31.778Z,28.30
2023-09-06T14:40:58.488Z,28.10
2023-09-06T14:43:24.721Z,28.30
2023-09-06T14:45:50.796Z,28.40
2023-09-06T14:48:16.941Z,28.40
2023-09-06T14:50:43.125Z,28.40
2023-09-06T14:53:09.290Z,28.50
2023-09-06T14:55:35.389Z,28.20
2023-09-06T14:58:02.129Z,28.50
2023-09-06T15:00:28.151Z,28.60
2023-09-06T15:02:54.474Z,28.50
2023-09-06T15:05:23.474Z,28.30
2023-09-06T15:07:49.492Z,28.20
2023-09-06T15:10:16.301Z,28.40
2023-09-06T15:12:43.208Z,28.30
2023-09-06T15:15:10.359Z,28.00
2023-09-06T15:17:36.592Z,27.80
2023-09-06T15:20:04.514Z,27.90
2023-09-06T15:22:38.773Z,27.80
2023-09-06T15:25:06.353Z,27.80
2023-09-06T15:27:32.934Z,27.60
2023-09-06T15:29:59.241Z,27.10
2023-09-06T15:32:25.522Z,26.90
2023-09-06T15:34:52.386Z,27.00
2023-09-06T15:37:18.440Z,26.60
2023-09-06T15:39:44.515Z,26.40
2023-09-06T15:42:12.557Z,26.30
2023-09-06T15:44:52.045Z,26.10
2023-09-06T15:47:18.622Z,25.90
2023-09-06T15:49:45.483Z,25.90
2023-09-06T15:52:12.752Z,26.30
2023-09-06T15:54:49.686Z,26.40
2023-09-06T15:57:17.038Z,26.40
2023-09-06T15:59:43.127Z,26.50
2023-09-06T16:02:12.325Z,26.30
2023-09-06T16:04:38.655Z,26.20
2023-09-06T16:07:06.560Z,26.10
2023-09-06T16:09:34.695Z,25.80
2023-09-06T16:12:01.298Z,25.70
2023-09-06T16:14:31.793Z,25.70
2023-09-06T16:16:57.908Z,25.50
2023-09-06T16:19:28.439Z,25.30
2023-09-06T16:21:57.241Z,25.40
2023-09-06T16:24:23.370Z,25.20
2023-09-06T16:26:52.466Z,25.10
2023-09-06T16:29:20.377Z,24.90
2023-09-06T16:31:46.392Z,24.80
2023-09-06T16:34:12.547Z,24.70
2023-09-06T16:36:38.732Z,24.50
2023-09-06T16:39:04.810Z,24.10
2023-09-06T16:41:30.897Z,24.00
2023-09-06T16:43:56.940Z,23.80
2023-09-06T16:46:23.163Z,23.60
2023-09-06T16:48:49.405Z,23.50
2023-09-06T16:51:15.438Z,23.20
2023-09-06T16:53:41.453Z,22.80
2023-09-06T16:56:07.503Z,22.60
2023-09-06T16:58:33.655Z,22.30
2023-09-06T17:01:00.084Z,22.50
2023-09-06T17:03:26.214Z,21.80
2023-09-06T17:05:52.311Z,21.50
2023-09-06T17:08:19.814Z,21.70
2023-09-06T17:10:46.350Z,20.90
2023-09-06T17:13:13.195Z,20.60
2023-09-06T17:15:39.842Z,20.20
2023-09-06T17:18:07.671Z,19.90
2023-09-06T17:20:33.734Z,19.70
2023-09-06T17:22:59.735Z,19.50
2023-09-06T17:25:25.926Z,19.30
2023-09-06T17:27:53.810Z,19.10
2023-09-06T17:30:22.989Z,18.80
2023-09-06T17:33:16.211Z,18.40
2023-09-06T17:35:43.457Z,18.30
2023-09-06T17:38:13.853Z,18.00
2023-09-06T17:40:47.636Z,17.90
2023-09-06T17:43:14.368Z,17.70
2023-09-06T17:45:40.616Z,17.50
2023-09-06T17:50:46.381Z,17.40
2023-09-06T17:55:41.146Z,16.90
2023-09-06T18:00:37.142Z,16.90
2023-09-06T18:05:34.014Z,16.70
2023-09-06T18:08:01.138Z,16.60
2023-09-06T18:10:32.934Z,16.30
2023-09-06T18:15:30.401Z,16.30
2023-09-06T18:18:00.134Z,16.10
2023-09-06T18:20:28.789Z,15.90
2023-09-06T18:40:15.732Z,15.70
2023-09-06T18:45:11.072Z,17.20
2023-09-06T18:47:42.317Z,15.80
2023-09-06T18:50:09.930Z,15.70
2023-09-06T18:52:37.251Z,15.40
2023-09-06T18:57:31.411Z,15.40
2023-09-06T18:59:57.562Z,15.20
2023-09-06T19:07:20.965Z,15.10
2023-09-06T19:09:47.978Z,15.30
2023-09-06T19:22:07.073Z,14.70
2023-09-06T19:27:04.086Z,14.80
2023-09-06T20:01:20.957Z,14.10
2023-09-06T20:18:32.363Z,13.90
2023-09-06T20:21:05.219Z,13.90
2023-09-06T20:26:02.968Z,14.10
2023-09-06T20:28:30.168Z,13.70
2023-09-06T20:38:21.215Z,13.70
2023-09-06T20:40:57.134Z,13.70
2023-09-06T21:00:30.811Z,13.40
2023-09-06T21:05:24.201Z,13.50
2023-09-06T21:15:10.306Z,13.50
2023-09-06T21:27:22.878Z,13.00
2023-09-06T21:29:49.473Z,13.00
2023-09-06T21:37:09.452Z,13.10
2023-09-06T21:56:41.508Z,12.40
2023-09-06T22:01:37.378Z,12.60
2023-09-06T22:08:56.709Z,12.40
2023-09-06T22:11:22.743Z,12.60
2023-09-06T22:35:49.644Z,12.40
2023-09-06T22:43:10.085Z,12.20
2023-09-06T22:45:39.994Z,12.40
2023-09-06T22:48:09.460Z,12.20
2023-09-06T22:50:36.891Z,12.10
2023-09-06T22:57:58.864Z,12.10
2023-09-06T23:07:45.559Z,12.10
2023-09-06T23:15:09.181Z,11.70
2023-09-06T23:20:19.834Z,12.00
2023-09-06T23:22:53.243Z,11.90
2023-09-06T23:27:49.110Z,11.60
2023-09-06T23:35:22.943Z,12.00
2023-09-06T23:42:58.682Z,12.10
2023-09-06T23:47:55.660Z,11.70
2023-09-06T23:50:24.852Z,11.70
2023-09-06T23:57:49.096Z,11.60
